sensor_id;sensor_type;location;lat;lon;timestamp;pressure;altitude;pressure_sealevel;temperature;humidity
21728;BME280;11026;50.560;17.852;2022-08-18T00:02:26;99125.88;;;21.60;89.46
21728;BME280;11026;50.560;17.852;2022-08-18T00:05:10;99127.88;;;21.58;90.24
21728;BME280;11026;50.560;17.852;2022-08-18T00:07:57;99125.47;;;21.55;89.43
21728;BME280;11026;50.560;17.852;2022-08-18T00:10:26;99123.91;;;21.52;88.63
21728;BME280;11026;50.560;17.852;2022-08-18T00:12:59;99118.13;;;21.47;88.31
21728;BME280;11026;50.560;17.852;2022-08-18T00:15:28;99126.53;;;21.34;89.31
21728;BME280;11026;50.560;17.852;2022-08-18T00:24:04;99126.75;;;20.75;92.41
21728;BME280;11026;50.560;17.852;2022-08-18T00:26:33;99127.41;;;20.48;94.35
21728;BME280;11026;50.560;17.852;2022-08-18T00:29:13;99135.00;;;20.43;94.82
21728;BME280;11026;50.560;17.852;2022-08-18T00:31:41;99139.88;;;20.58;93.82
21728;BME280;11026;50.560;17.852;2022-08-18T00:34:14;99133.38;;;20.51;93.48
21728;BME280;11026;50.560;17.852;2022-08-18T00:36:56;99121.69;;;20.22;95.24
21728;BME280;11026;50.560;17.852;2022-08-18T00:39:25;99126.50;;;20.18;95.96
21728;BME280;11026;50.560;17.852;2022-08-18T00:42:25;99129.91;;;20.30;95.73
21728;BME280;11026;50.560;17.852;2022-08-18T00:45:22;99127.22;;;20.20;96.59
21728;BME280;11026;50.560;17.852;2022-08-18T00:48:04;99129.81;;;20.51;95.70
21728;BME280;11026;50.560;17.852;2022-08-18T00:53:40;99113.00;;;20.87;92.47
21728;BME280;11026;50.560;17.852;2022-08-18T00:56:27;99120.06;;;20.88;91.97
21728;BME280;11026;50.560;17.852;2022-08-18T00:59:06;99114.84;;;20.87;92.07
21728;BME280;11026;50.560;17.852;2022-08-18T01:01:35;99113.69;;;20.90;91.76
21728;BME280;11026;50.560;17.852;2022-08-18T01:04:08;99111.72;;;20.92;91.60
21728;BME280;11026;50.560;17.852;2022-08-18T01:06:57;99098.84;;;20.95;91.93
21728;BME280;11026;50.560;17.852;2022-08-18T01:09:28;99098.53;;;20.98;91.72
21728;BME280;11026;50.560;17.852;2022-08-18T01:11:55;99096.00;;;20.97;91.54
21728;BME280;11026;50.560;17.852;2022-08-18T01:14:24;99095.44;;;21.03;91.27
21728;BME280;11026;50.560;17.852;2022-08-18T01:17:11;99093.72;;;21.02;91.38
21728;BME280;11026;50.560;17.852;2022-08-18T01:20:00;99091.19;;;21.00;91.27
21728;BME280;11026;50.560;17.852;2022-08-18T01:23:21;99088.69;;;20.79;92.21
21728;BME280;11026;50.560;17.852;2022-08-18T01:25:50;99077.94;;;20.60;93.47
21728;BME280;11026;50.560;17.852;2022-08-18T01:28:51;99076.06;;;20.70;93.54
21728;BME280;11026;50.560;17.852;2022-08-18T01:31:41;99098.28;;;20.62;92.62
21728;BME280;11026;50.560;17.852;2022-08-18T01:34:39;99087.47;;;20.04;96.26
21728;BME280;11026;50.560;17.852;2022-08-18T01:37:16;99094.97;;;19.60;99.13
21728;BME280;11026;50.560;17.852;2022-08-18T01:39:51;99091.63;;;19.68;99.82
21728;BME280;11026;50.560;17.852;2022-08-18T01:42:50;99093.81;;;19.84;99.06
21728;BME280;11026;50.560;17.852;2022-08-18T01:45:42;99098.44;;;19.82;99.24
21728;BME280;11026;50.560;17.852;2022-08-18T01:48:35;99095.22;;;19.98;97.90
21728;BME280;11026;50.560;17.852;2022-08-18T01:51:05;99098.22;;;20.04;97.66
21728;BME280;11026;50.560;17.852;2022-08-18T01:53:42;99091.72;;;20.07;97.43
21728;BME280;11026;50.560;17.852;2022-08-18T01:56:21;99087.72;;;19.92;97.62
21728;BME280;11026;50.560;17.852;2022-08-18T01:58:49;99089.31;;;20.04;97.50
21728;BME280;11026;50.560;17.852;2022-08-18T02:01:27;99084.25;;;20.20;96.93
21728;BME280;11026;50.560;17.852;2022-08-18T02:04:09;99093.84;;;20.23;95.89
21728;BME280;11026;50.560;17.852;2022-08-18T02:07:15;99104.03;;;20.19;96.02
21728;BME280;11026;50.560;17.852;2022-08-18T02:09:58;99104.75;;;20.21;95.94
21728;BME280;11026;50.560;17.852;2022-08-18T02:12:31;99101.06;;;20.22;96.14
21728;BME280;11026;50.560;17.852;2022-08-18T02:15:06;99102.34;;;20.18;96.44
21728;BME280;11026;50.560;17.852;2022-08-18T02:17:37;99103.06;;;20.20;96.35
21728;BME280;11026;50.560;17.852;2022-08-18T02:20:16;99110.38;;;20.18;96.20
21728;BME280;11026;50.560;17.852;2022-08-18T02:22:47;99109.13;;;20.12;96.94
21728;BME280;11026;50.560;17.852;2022-08-18T02:25:23;99100.53;;;19.78;98.10
21728;BME280;11026;50.560;17.852;2022-08-18T02:27:57;99111.94;;;19.71;99.75
21728;BME280;11026;50.560;17.852;2022-08-18T02:30:25;99112.06;;;19.38;100.00
21728;BME280;11026;50.560;17.852;2022-08-18T02:32:56;99115.66;;;19.28;100.00
21728;BME280;11026;50.560;17.852;2022-08-18T02:35:24;99127.53;;;19.25;100.00
21728;BME280;11026;50.560;17.852;2022-08-18T02:38:05;99114.34;;;19.43;100.00
21728;BME280;11026;50.560;17.852;2022-08-18T02:40:34;99123.72;;;19.49;100.00
21728;BME280;11026;50.560;17.852;2022-08-18T02:43:06;99108.91;;;19.54;100.00
21728;BME280;11026;50.560;17.852;2022-08-18T02:45:41;99111.91;;;19.61;100.00
21728;BME280;11026;50.560;17.852;2022-08-18T02:48:20;99106.66;;;19.59;100.00
21728;BME280;11026;50.560;17.852;2022-08-18T02:51:13;99101.69;;;19.55;100.00
21728;BME280;11026;50.560;17.852;2022-08-18T02:53:43;99099.47;;;19.60;100.00
21728;BME280;11026;50.560;17.852;2022-08-18T02:56:15;99105.69;;;19.60;100.00
21728;BME280;11026;50.560;17.852;2022-08-18T02:59:08;99106.63;;;19.50;100.00
21728;BME280;11026;50.560;17.852;2022-08-18T03:01:44;99113.00;;;19.58;100.00
21728;BME280;11026;50.560;17.852;2022-08-18T03:07:06;99110.31;;;19.58;100.00
21728;BME280;11026;50.560;17.852;2022-08-18T03:09:41;99103.97;;;19.59;99.30
21728;BME280;11026;50.560;17.852;2022-08-18T03:12:08;99107.06;;;19.55;98.59
21728;BME280;11026;50.560;17.852;2022-08-18T03:14:38;99105.94;;;19.57;99.37
21728;BME280;11026;50.560;17.852;2022-08-18T03:17:07;99098.00;;;19.56;98.90
21728;BME280;11026;50.560;17.852;2022-08-18T03:19:35;99085.59;;;19.55;98.39
21728;BME280;11026;50.560;17.852;2022-08-18T03:22:03;99095.06;;;19.59;99.04
21728;BME280;11026;50.560;17.852;2022-08-18T03:25:14;99104.25;;;19.56;99.18
21728;BME280;11026;50.560;17.852;2022-08-18T03:27:41;99100.44;;;19.59;99.95
21728;BME280;11026;50.560;17.852;2022-08-18T03:30:09;99102.28;;;19.58;100.00
21728;BME280;11026;50.560;17.852;2022-08-18T03:32:39;99111.84;;;19.51;99.37
21728;BME280;11026;50.560;17.852;2022-08-18T03:37:44;99118.06;;;19.52;99.00
21728;BME280;11026;50.560;17.852;2022-08-18T03:40:23;99107.88;;;19.46;100.00
21728;BME280;11026;50.560;17.852;2022-08-18T03:42:50;99107.91;;;19.25;100.00
21728;BME280;11026;50.560;17.852;2022-08-18T03:45:30;99109.19;;;19.30;100.00
21728;BME280;11026;50.560;17.852;2022-08-18T03:48:26;99114.81;;;19.27;100.00
21728;BME280;11026;50.560;17.852;2022-08-18T03:53:57;99119.31;;;18.32;100.00
21728;BME280;11026;50.560;17.852;2022-08-18T03:56:36;99125.00;;;18.38;100.00
21728;BME280;11026;50.560;17.852;2022-08-18T03:59:22;99122.22;;;18.61;100.00
21728;BME280;11026;50.560;17.852;2022-08-18T04:01:57;99123.66;;;18.76;100.00
21728;BME280;11026;50.560;17.852;2022-08-18T04:04:34;99124.94;;;18.93;100.00
21728;BME280;11026;50.560;17.852;2022-08-18T04:07:11;99130.78;;;19.08;100.00
21728;BME280;11026;50.560;17.852;2022-08-18T04:09:49;99143.69;;;19.14;100.00
21728;BME280;11026;50.560;17.852;2022-08-18T04:12:39;99138.25;;;19.25;100.00
21728;BME280;11026;50.560;17.852;2022-08-18T04:15:07;99137.13;;;19.28;100.00
21728;BME280;11026;50.560;17.852;2022-08-18T04:17:44;99137.44;;;19.34;100.00
21728;BME280;11026;50.560;17.852;2022-08-18T04:20:36;99137.22;;;19.47;100.00
21728;BME280;11026;50.560;17.852;2022-08-18T04:23:31;99135.88;;;19.53;100.00
21728;BME280;11026;50.560;17.852;2022-08-18T04:26:22;99129.00;;;19.60;100.00
21728;BME280;11026;50.560;17.852;2022-08-18T04:28:50;99128.72;;;19.63;100.00
21728;BME280;11026;50.560;17.852;2022-08-18T04:31:21;99124.38;;;19.72;100.00
21728;BME280;11026;50.560;17.852;2022-08-18T04:33:51;99123.25;;;19.74;100.00
21728;BME280;11026;50.560;17.852;2022-08-18T04:36:55;99131.75;;;19.79;100.00
21728;BME280;11026;50.560;17.852;2022-08-18T04:39:25;99129.56;;;19.94;100.00
21728;BME280;11026;50.560;17.852;2022-08-18T04:41:58;99126.19;;;20.02;100.00
21728;BME280;11026;50.560;17.852;2022-08-18T04:44:28;99132.72;;;20.09;100.00
21728;BME280;11026;50.560;17.852;2022-08-18T04:46:59;99135.81;;;20.14;100.00
21728;BME280;11026;50.560;17.852;2022-08-18T04:49:29;99136.28;;;20.29;100.00
21728;BME280;11026;50.560;17.852;2022-08-18T04:52:05;99135.59;;;20.36;100.00
21728;BME280;11026;50.560;17.852;2022-08-18T04:55:28;99140.38;;;20.43;100.00
21728;BME280;11026;50.560;17.852;2022-08-18T04:57:56;99141.81;;;20.47;100.00
21728;BME280;11026;50.560;17.852;2022-08-18T05:00:26;99130.28;;;20.56;100.00
21728;BME280;11026;50.560;17.852;2022-08-18T05:06:29;99142.28;;;20.81;99.68
21728;BME280;11026;50.560;17.852;2022-08-18T05:09:05;99145.25;;;20.87;99.77
21728;BME280;11026;50.560;17.852;2022-08-18T05:11:56;99141.56;;;20.88;100.00
21728;BME280;11026;50.560;17.852;2022-08-18T05:14:23;99137.34;;;20.96;100.00
21728;BME280;11026;50.560;17.852;2022-08-18T05:16:57;99147.06;;;21.06;99.75
21728;BME280;11026;50.560;17.852;2022-08-18T05:19:31;99135.31;;;21.17;99.64
21728;BME280;11026;50.560;17.852;2022-08-18T05:22:15;99135.88;;;21.30;99.86
21728;BME280;11026;50.560;17.852;2022-08-18T05:25:10;99143.06;;;21.30;99.63
21728;BME280;11026;50.560;17.852;2022-08-18T05:27:54;99142.53;;;21.26;100.00
21728;BME280;11026;50.560;17.852;2022-08-18T05:30:22;99143.22;;;21.28;100.00
21728;BME280;11026;50.560;17.852;2022-08-18T05:33:14;99143.47;;;21.45;100.00
21728;BME280;11026;50.560;17.852;2022-08-18T05:35:53;99154.47;;;21.61;100.00
21728;BME280;11026;50.560;17.852;2022-08-18T05:41:29;99160.41;;;22.02;98.36
21728;BME280;11026;50.560;17.852;2022-08-18T05:44:05;99167.09;;;21.98;98.68
21728;BME280;11026;50.560;17.852;2022-08-18T05:46:47;99164.47;;;22.16;98.41
21728;BME280;11026;50.560;17.852;2022-08-18T05:49:19;99157.84;;;22.38;96.54
21728;BME280;11026;50.560;17.852;2022-08-18T05:52:00;99161.63;;;22.63;95.03
21728;BME280;11026;50.560;17.852;2022-08-18T05:54:39;99164.16;;;22.64;94.48
21728;BME280;11026;50.560;17.852;2022-08-18T05:57:32;99166.94;;;22.72;94.99
21728;BME280;11026;50.560;17.852;2022-08-18T06:00:05;99160.31;;;22.84;95.12
21728;BME280;11026;50.560;17.852;2022-08-18T06:02:46;99165.13;;;23.09;93.74
21728;BME280;11026;50.560;17.852;2022-08-18T06:05:27;99167.16;;;23.33;93.11
21728;BME280;11026;50.560;17.852;2022-08-18T06:08:15;99163.41;;;23.60;92.26
21728;BME280;11026;50.560;17.852;2022-08-18T06:10:50;99163.63;;;23.84;90.60
21728;BME280;11026;50.560;17.852;2022-08-18T06:41:36;99162.06;;;25.56;81.03
21728;BME280;11026;50.560;17.852;2022-08-18T06:44:43;99167.28;;;25.74;80.31
21728;BME280;11026;50.560;17.852;2022-08-18T06:53:11;99156.47;;;26.21;75.63
21728;BME280;11026;50.560;17.852;2022-08-18T06:55:55;99171.97;;;26.36;75.72
21728;BME280;11026;50.560;17.852;2022-08-18T06:58:28;99161.06;;;26.44;76.20
21728;BME280;11026;50.560;17.852;2022-08-18T07:04:06;99170.31;;;26.66;75.13
21728;BME280;11026;50.560;17.852;2022-08-18T07:06:37;99178.56;;;26.72;74.81
21728;BME280;11026;50.560;17.852;2022-08-18T07:09:21;99164.47;;;26.77;74.90
21728;BME280;11026;50.560;17.852;2022-08-18T07:12:07;99172.91;;;26.82;72.57
21728;BME280;11026;50.560;17.852;2022-08-18T07:14:47;99170.50;;;26.87;72.37
21728;BME280;11026;50.560;17.852;2022-08-18T07:17:35;99167.22;;;26.92;72.02
21728;BME280;11026;50.560;17.852;2022-08-18T07:20:24;99172.72;;;26.84;72.67
21728;BME280;11026;50.560;17.852;2022-08-18T07:23:00;99168.03;;;27.01;71.75
21728;BME280;11026;50.560;17.852;2022-08-18T07:25:43;99174.56;;;27.14;70.79
21728;BME280;11026;50.560;17.852;2022-08-18T07:31:22;99162.66;;;27.15;72.38
21728;BME280;11026;50.560;17.852;2022-08-18T07:34:07;99156.84;;;27.41;72.21
21728;BME280;11026;50.560;17.852;2022-08-18T07:36:58;99156.84;;;27.56;71.92
21728;BME280;11026;50.560;17.852;2022-08-18T07:48:16;99158.06;;;28.42;67.92
21728;BME280;11026;50.560;17.852;2022-08-18T07:59:30;99165.19;;;28.80;63.71
21728;BME280;11026;50.560;17.852;2022-08-18T08:10:35;99172.25;;;29.17;59.66
21728;BME280;11026;50.560;17.852;2022-08-18T08:13:23;99169.00;;;29.28;60.44
21728;BME280;11026;50.560;17.852;2022-08-18T08:28:39;99178.84;;;30.13;60.14
21728;BME280;11026;50.560;17.852;2022-08-18T08:31:48;99181.69;;;30.33;59.71
21728;BME280;11026;50.560;17.852;2022-08-18T08:34:51;99183.63;;;30.53;59.08
21728;BME280;11026;50.560;17.852;2022-08-18T08:37:29;99200.50;;;30.70;59.16
21728;BME280;11026;50.560;17.852;2022-08-18T08:40:00;99191.31;;;30.77;60.08
21728;BME280;11026;50.560;17.852;2022-08-18T08:42:41;99192.16;;;30.91;59.00
21728;BME280;11026;50.560;17.852;2022-08-18T08:45:18;99188.44;;;31.05;58.20
21728;BME280;11026;50.560;17.852;2022-08-18T08:54:20;99191.41;;;31.50;57.04
21728;BME280;11026;50.560;17.852;2022-08-18T08:56:58;99189.09;;;31.61;56.59
21728;BME280;11026;50.560;17.852;2022-08-18T08:59:28;99189.28;;;31.59;57.02
21728;BME280;11026;50.560;17.852;2022-08-18T09:02:33;99189.50;;;31.71;56.21
21728;BME280;11026;50.560;17.852;2022-08-18T09:22:49;99172.19;;;32.62;54.27
21728;BME280;11026;50.560;17.852;2022-08-18T09:25:46;99176.28;;;32.84;53.60
21728;BME280;11026;50.560;17.852;2022-08-18T09:36:38;99161.66;;;33.53;51.09
21728;BME280;11026;50.560;17.852;2022-08-18T09:42:46;99158.66;;;33.80;49.30
21728;BME280;11026;50.560;17.852;2022-08-18T09:48:28;99149.56;;;34.05;46.93
21728;BME280;11026;50.560;17.852;2022-08-18T09:51:30;99140.13;;;33.57;46.21
21728;BME280;11026;50.560;17.852;2022-08-18T09:54:29;99134.56;;;33.14;46.50
21728;BME280;11026;50.560;17.852;2022-08-18T10:11:35;99113.81;;;31.51;49.10
21728;BME280;11026;50.560;17.852;2022-08-18T10:17:29;99099.94;;;32.24;46.78
21728;BME280;11026;50.560;17.852;2022-08-18T10:20:13;99092.16;;;32.21;47.90
21728;BME280;11026;50.560;17.852;2022-08-18T10:22:59;99085.75;;;32.79;46.99
21728;BME280;11026;50.560;17.852;2022-08-18T10:25:43;99085.47;;;33.37;45.23
21728;BME280;11026;50.560;17.852;2022-08-18T10:28:55;99073.94;;;34.09;46.29
21728;BME280;11026;50.560;17.852;2022-08-18T10:31:23;99074.22;;;34.79;44.40
21728;BME280;11026;50.560;17.852;2022-08-18T10:34:03;99077.53;;;34.58;40.67
21728;BME280;11026;50.560;17.852;2022-08-18T10:37:13;99075.91;;;34.20;41.18
21728;BME280;11026;50.560;17.852;2022-08-18T10:39:58;99068.94;;;34.66;41.56
21728;BME280;11026;50.560;17.852;2022-08-18T10:42:36;99082.06;;;35.17;42.61
21728;BME280;11026;50.560;17.852;2022-08-18T10:49:16;99065.31;;;36.18;39.05
21728;BME280;11026;50.560;17.852;2022-08-18T10:55:02;99054.38;;;36.63;38.20
21728;BME280;11026;50.560;17.852;2022-08-18T11:00:53;99050.25;;;37.33;37.08
21728;BME280;11026;50.560;17.852;2022-08-18T11:06:23;99039.53;;;37.54;37.93
21728;BME280;11026;50.560;17.852;2022-08-18T11:09:02;99044.59;;;38.01;37.44
21728;BME280;11026;50.560;17.852;2022-08-18T11:11:59;99040.22;;;38.32;34.51
21728;BME280;11026;50.560;17.852;2022-08-18T11:14:49;99045.88;;;38.69;35.21
21728;BME280;11026;50.560;17.852;2022-08-18T11:20:37;99041.06;;;38.86;34.33
21728;BME280;11026;50.560;17.852;2022-08-18T11:23:15;99036.31;;;39.14;34.68
21728;BME280;11026;50.560;17.852;2022-08-18T11:26:14;99039.56;;;39.06;33.92
21728;BME280;11026;50.560;17.852;2022-08-18T11:28:48;99033.00;;;39.17;33.60
21728;BME280;11026;50.560;17.852;2022-08-18T11:31:17;99026.53;;;39.01;34.22
21728;BME280;11026;50.560;17.852;2022-08-18T11:33:51;99031.47;;;38.67;34.46
21728;BME280;11026;50.560;17.852;2022-08-18T11:36:29;99029.41;;;37.98;34.74
21728;BME280;11026;50.560;17.852;2022-08-18T11:38:59;99032.13;;;38.47;35.01
21728;BME280;11026;50.560;17.852;2022-08-18T11:41:27;99024.22;;;38.88;33.86
21728;BME280;11026;50.560;17.852;2022-08-18T11:44:21;99022.91;;;39.33;32.68
21728;BME280;11026;50.560;17.852;2022-08-18T11:47:06;99033.41;;;39.83;33.36
21728;BME280;11026;50.560;17.852;2022-08-18T11:50:04;99020.25;;;40.16;32.70
21728;BME280;11026;50.560;17.852;2022-08-18T11:53:11;99012.59;;;40.59;32.51
21728;BME280;11026;50.560;17.852;2022-08-18T11:56:01;99015.91;;;41.02;31.89
21728;BME280;11026;50.560;17.852;2022-08-18T11:58:57;99015.84;;;41.33;30.33
21728;BME280;11026;50.560;17.852;2022-08-18T12:01:51;99008.56;;;41.62;29.81
21728;BME280;11026;50.560;17.852;2022-08-18T12:04:35;99007.69;;;41.82;30.31
21728;BME280;11026;50.560;17.852;2022-08-18T12:07:39;99008.13;;;41.99;29.83
21728;BME280;11026;50.560;17.852;2022-08-18T12:10:44;99003.22;;;41.76;30.13
21728;BME280;11026;50.560;17.852;2022-08-18T12:13:23;98991.41;;;41.50;30.31
21728;BME280;11026;50.560;17.852;2022-08-18T12:16:33;98986.31;;;41.72;29.72
21728;BME280;11026;50.560;17.852;2022-08-18T12:19:13;98989.47;;;42.05;29.33
21728;BME280;11026;50.560;17.852;2022-08-18T12:24:38;98987.03;;;42.43;29.01
21728;BME280;11026;50.560;17.852;2022-08-18T12:27:17;98990.78;;;41.63;28.93
21728;BME280;11026;50.560;17.852;2022-08-18T12:29:54;98990.50;;;41.70;30.42
21728;BME280;11026;50.560;17.852;2022-08-18T12:32:42;98986.22;;;41.93;29.38
21728;BME280;11026;50.560;17.852;2022-08-18T12:35:28;98997.28;;;42.03;29.03
21728;BME280;11026;50.560;17.852;2022-08-18T12:37:56;98991.06;;;42.27;28.46
21728;BME280;11026;50.560;17.852;2022-08-18T12:40:41;99002.56;;;42.49;28.31
21728;BME280;11026;50.560;17.852;2022-08-18T12:43:09;98996.88;;;42.20;29.00
21728;BME280;11026;50.560;17.852;2022-08-18T12:45:39;99004.75;;;42.52;28.55
21728;BME280;11026;50.560;17.852;2022-08-18T12:48:23;99008.41;;;42.03;28.01
21728;BME280;11026;50.560;17.852;2022-08-18T12:50:53;99005.94;;;40.60;29.27
21728;BME280;11026;50.560;17.852;2022-08-18T12:56:34;99015.75;;;39.42;30.02
21728;BME280;11026;50.560;17.852;2022-08-18T12:59:05;99021.94;;;39.17;31.44
21728;BME280;11026;50.560;17.852;2022-08-18T13:01:38;99017.28;;;39.70;30.61
21728;BME280;11026;50.560;17.852;2022-08-18T13:04:24;99012.72;;;38.69;32.33
21728;BME280;11026;50.560;17.852;2022-08-18T13:06:55;99014.69;;;38.42;32.27
21728;BME280;11026;50.560;17.852;2022-08-18T13:09:36;99019.25;;;38.58;32.90
21728;BME280;11026;50.560;17.852;2022-08-18T13:12:22;99017.56;;;37.59;32.59
21728;BME280;11026;50.560;17.852;2022-08-18T13:14:53;99013.38;;;37.56;32.16
21728;BME280;11026;50.560;17.852;2022-08-18T13:17:29;99002.78;;;37.48;33.24
21728;BME280;11026;50.560;17.852;2022-08-18T13:20:06;98999.50;;;37.73;32.37
21728;BME280;11026;50.560;17.852;2022-08-18T13:22:36;98996.81;;;38.49;31.57
21728;BME280;11026;50.560;17.852;2022-08-18T13:25:17;98999.59;;;38.54;31.49
21728;BME280;11026;50.560;17.852;2022-08-18T13:28:13;98996.88;;;39.87;31.18
21728;BME280;11026;50.560;17.852;2022-08-18T13:30:45;98998.47;;;38.82;30.20
21728;BME280;11026;50.560;17.852;2022-08-18T13:33:13;98995.44;;;37.98;30.97
21728;BME280;11026;50.560;17.852;2022-08-18T13:36:00;99002.09;;;38.56;30.77
21728;BME280;11026;50.560;17.852;2022-08-18T13:38:28;99003.03;;;39.04;32.02
21728;BME280;11026;50.560;17.852;2022-08-18T13:41:01;98988.44;;;38.76;30.95
21728;BME280;11026;50.560;17.852;2022-08-18T13:43:34;98997.81;;;39.07;31.63
21728;BME280;11026;50.560;17.852;2022-08-18T13:46:05;98989.19;;;38.99;31.19
21728;BME280;11026;50.560;17.852;2022-08-18T13:48:36;99001.22;;;38.23;31.49
21728;BME280;11026;50.560;17.852;2022-08-18T13:51:08;99001.31;;;37.24;32.66
21728;BME280;11026;50.560;17.852;2022-08-18T13:53:37;99000.63;;;37.72;31.69
21728;BME280;11026;50.560;17.852;2022-08-18T13:56:25;98990.91;;;37.70;31.73
21728;BME280;11026;50.560;17.852;2022-08-18T13:58:57;98996.03;;;38.32;32.50
21728;BME280;11026;50.560;17.852;2022-08-18T14:01:24;98980.91;;;39.04;29.70
21728;BME280;11026;50.560;17.852;2022-08-18T14:04:12;98980.06;;;38.07;30.82
21728;BME280;11026;50.560;17.852;2022-08-18T14:06:46;98975.16;;;37.43;31.32
21728;BME280;11026;50.560;17.852;2022-08-18T14:09:40;98972.41;;;36.08;33.12
21728;BME280;11026;50.560;17.852;2022-08-18T14:12:22;98973.50;;;36.41;32.81
21728;BME280;11026;50.560;17.852;2022-08-18T14:14:59;98973.72;;;36.68;32.37
21728;BME280;11026;50.560;17.852;2022-08-18T14:17:49;98965.25;;;37.69;31.38
21728;BME280;11026;50.560;17.852;2022-08-18T14:20:22;98951.38;;;37.86;31.67
21728;BME280;11026;50.560;17.852;2022-08-18T14:23:19;98959.75;;;38.18;30.89
21728;BME280;11026;50.560;17.852;2022-08-18T14:26:26;98946.84;;;38.56;30.20
21728;BME280;11026;50.560;17.852;2022-08-18T14:29:17;98952.69;;;38.65;30.83
21728;BME280;11026;50.560;17.852;2022-08-18T14:32:06;98943.63;;;38.69;30.03
21728;BME280;11026;50.560;17.852;2022-08-18T14:34:38;98940.31;;;37.59;30.73
21728;BME280;11026;50.560;17.852;2022-08-18T14:40:18;98952.94;;;37.99;31.67
21728;BME280;11026;50.560;17.852;2022-08-18T14:42:47;98946.63;;;37.81;31.11
21728;BME280;11026;50.560;17.852;2022-08-18T14:45:23;98948.56;;;38.03;30.99
21728;BME280;11026;50.560;17.852;2022-08-18T14:48:00;98958.75;;;36.98;31.17
21728;BME280;11026;50.560;17.852;2022-08-18T14:50:38;98950.09;;;36.72;31.77
21728;BME280;11026;50.560;17.852;2022-08-18T14:53:31;98946.34;;;37.17;32.27
21728;BME280;11026;50.560;17.852;2022-08-18T14:56:07;98940.44;;;37.47;31.39
21728;BME280;11026;50.560;17.852;2022-08-18T14:58:35;98935.09;;;37.19;31.20
21728;BME280;11026;50.560;17.852;2022-08-18T15:01:07;98948.31;;;37.82;31.05
21728;BME280;11026;50.560;17.852;2022-08-18T15:03:38;98951.91;;;37.61;30.60
21728;BME280;11026;50.560;17.852;2022-08-18T15:06:06;98957.00;;;37.47;31.51
21728;BME280;11026;50.560;17.852;2022-08-18T15:08:47;98949.50;;;38.13;30.64
21728;BME280;11026;50.560;17.852;2022-08-18T15:11:23;98947.91;;;37.47;31.23
21728;BME280;11026;50.560;17.852;2022-08-18T15:13:50;98950.97;;;37.11;31.54
21728;BME280;11026;50.560;17.852;2022-08-18T15:16:21;98955.25;;;37.63;31.74
21728;BME280;11026;50.560;17.852;2022-08-18T15:19:15;98952.13;;;38.30;30.85
21728;BME280;11026;50.560;17.852;2022-08-18T15:22:09;98949.53;;;38.19;30.44
21728;BME280;11026;50.560;17.852;2022-08-18T15:25:05;98950.53;;;38.34;30.54
21728;BME280;11026;50.560;17.852;2022-08-18T15:27:54;98960.13;;;38.59;30.22
21728;BME280;11026;50.560;17.852;2022-08-18T15:30:25;98953.09;;;38.14;30.56
21728;BME280;11026;50.560;17.852;2022-08-18T15:32:57;98956.28;;;37.57;31.39
21728;BME280;11026;50.560;17.852;2022-08-18T15:35:33;98968.06;;;37.30;32.03
21728;BME280;11026;50.560;17.852;2022-08-18T15:38:04;98957.09;;;36.46;31.90
21728;BME280;11026;50.560;17.852;2022-08-18T15:40:35;98951.06;;;36.32;32.85
21728;BME280;11026;50.560;17.852;2022-08-18T15:43:10;98952.69;;;36.62;33.01
21728;BME280;11026;50.560;17.852;2022-08-18T15:45:42;98942.75;;;36.61;33.09
21728;BME280;11026;50.560;17.852;2022-08-18T15:48:26;98945.00;;;36.64;34.30
21728;BME280;11026;50.560;17.852;2022-08-18T15:50:59;98959.88;;;36.63;33.78
21728;BME280;11026;50.560;17.852;2022-08-18T15:53:56;98955.47;;;35.88;34.79
21728;BME280;11026;50.560;17.852;2022-08-18T15:56:38;98959.97;;;36.51;35.10
21728;BME280;11026;50.560;17.852;2022-08-18T15:59:10;98963.88;;;36.72;34.28
21728;BME280;11026;50.560;17.852;2022-08-18T16:01:39;98966.03;;;36.87;33.91
21728;BME280;11026;50.560;17.852;2022-08-18T16:04:22;98956.59;;;37.00;34.48
21728;BME280;11026;50.560;17.852;2022-08-18T16:06:49;98956.53;;;36.61;34.17
21728;BME280;11026;50.560;17.852;2022-08-18T16:09:32;98961.81;;;36.34;34.75
21728;BME280;11026;50.560;17.852;2022-08-18T16:15:21;98946.38;;;36.16;34.60
21728;BME280;11026;50.560;17.852;2022-08-18T16:17:55;98938.28;;;36.26;34.44
21728;BME280;11026;50.560;17.852;2022-08-18T16:20:26;98941.03;;;36.09;35.51
21728;BME280;11026;50.560;17.852;2022-08-18T16:22:57;98930.69;;;35.47;36.07
21728;BME280;11026;50.560;17.852;2022-08-18T16:25:26;98928.88;;;34.89;36.96
21728;BME280;11026;50.560;17.852;2022-08-18T16:28:10;98926.59;;;34.86;37.00
21728;BME280;11026;50.560;17.852;2022-08-18T16:30:45;98926.38;;;34.99;37.05
21728;BME280;11026;50.560;17.852;2022-08-18T16:33:16;98924.44;;;34.88;37.21
21728;BME280;11026;50.560;17.852;2022-08-18T16:36:21;98928.25;;;34.87;36.86
21728;BME280;11026;50.560;17.852;2022-08-18T16:38:52;98915.50;;;34.58;37.59
21728;BME280;11026;50.560;17.852;2022-08-18T16:41:27;98907.72;;;34.90;37.08
21728;BME280;11026;50.560;17.852;2022-08-18T16:43:57;98905.78;;;34.43;37.38
21728;BME280;11026;50.560;17.852;2022-08-18T16:46:26;98907.56;;;34.26;38.00
21728;BME280;11026;50.560;17.852;2022-08-18T16:49:09;98904.56;;;34.16;37.83
21728;BME280;11026;50.560;17.852;2022-08-18T16:51:40;98897.88;;;34.12;38.79
21728;BME280;11026;50.560;17.852;2022-08-18T16:54:12;98896.56;;;33.84;38.67
21728;BME280;11026;50.560;17.852;2022-08-18T16:57:09;98892.16;;;33.53;38.92
21728;BME280;11026;50.560;17.852;2022-08-18T16:59:37;98890.94;;;33.49;39.36
21728;BME280;11026;50.560;17.852;2022-08-18T17:02:27;98894.28;;;33.33;39.58